DLH1A EDDK-EDDB
Flight info
| Callsign | DLH1A |
|---|---|
| Flight time | N/A |
| Altitude | 30000 |
| Route | / |
| Aircraft | A320/L-V/N |
Departure
| Time | 2026-04-30 22:50 |
|---|---|
| Airport | Cologne Bonn Airport (EDDK) |
Arrival
| Time | N/A |
|---|---|
| Airport | Berlin Brandenburg Airport (EDDB) |
| Time | Latitude | Longitude | Altitude | Speed | Heading |
|---|---|---|---|---|---|
| 2026-04-30 22:28 | 50.88148 | 7.11993 | 232 ft | 0 kts | 216° |
| 2026-04-30 22:41 | 50.88149 | 7.11995 | 233 ft | 2 kts | 216° |
| 2026-04-30 22:41 | 50.88192 | 7.12041 | 235 ft | 4 kts | 200° |
| 2026-04-30 22:42 | 50.88234 | 7.12029 | 235 ft | 0 kts | 126° |
| 2026-04-30 22:45 | 50.88186 | 7.12133 | 232 ft | 9 kts | 126° |
| 2026-04-30 22:46 | 50.88097 | 7.12328 | 232 ft | 13 kts | 126° |
| 2026-04-30 22:47 | 50.87997 | 7.12758 | 236 ft | 0 kts | 72° |
| 2026-04-30 22:47 | 50.88008 | 7.12863 | 239 ft | 9 kts | 91° |
| 2026-04-30 22:48 | 50.87958 | 7.13037 | 239 ft | 0 kts | 137° |
| 2026-04-30 22:49 | 50.87941 | 7.13062 | 239 ft | 5 kts | 137° |
| 2026-04-30 22:49 | 50.87129 | 7.14252 | 250 ft | 151 kts | 138° |
| 2026-04-30 22:50 | 50.83275 | 7.19599 | 2238 ft | 178 kts | 136° |
| 2026-04-30 22:51 | 50.81796 | 7.23237 | 3240 ft | 220 kts | 111° |
| 2026-04-30 22:51 | 50.81247 | 7.28244 | 4209 ft | 246 kts | 101° |
| 2026-04-30 22:52 | 50.80995 | 7.31010 | 4697 ft | 262 kts | 101° |
| 2026-04-30 22:52 | 50.80427 | 7.37141 | 5682 ft | 301 kts | 100° |
| 2026-04-30 22:53 | 50.79791 | 7.44026 | 6743 ft | 329 kts | 99° |
| 2026-04-30 22:53 | 50.79110 | 7.51330 | 8027 ft | 339 kts | 99° |
| 2026-04-30 22:53 | 50.78802 | 7.55041 | 8677 ft | 342 kts | 93° |
| 2026-04-30 22:54 | 50.80335 | 7.62140 | 10013 ft | 359 kts | 51° |
| 2026-04-30 22:55 | 50.85919 | 7.70224 | 10371 ft | 364 kts | 43° |
| 2026-04-30 22:55 | 50.89733 | 7.75517 | 10385 ft | 363 kts | 44° |
| 2026-04-30 22:56 | 50.93486 | 7.80891 | 10383 ft | 362 kts | 47° |
| 2026-04-30 22:56 | 50.97570 | 7.90827 | 10386 ft | 360 kts | 61° |
| 2026-04-30 22:57 | 51.00093 | 7.97658 | 10388 ft | 360 kts | 61° |
| 2026-04-30 22:57 | 51.02628 | 8.04525 | 10391 ft | 360 kts | 61° |
| 2026-04-30 22:58 | 51.05148 | 8.11365 | 10396 ft | 358 kts | 61° |
| 2026-04-30 22:59 | 51.08905 | 8.21612 | 11575 ft | 361 kts | 61° |
| 2026-04-30 22:59 | 51.12721 | 8.32097 | 13542 ft | 368 kts | 62° |